createdAt,value
2019-02-24T00:00:56.008Z,99.90
2019-02-24T00:03:25.468Z,99.90
2019-02-24T00:05:54.850Z,99.90
2019-02-24T00:08:24.137Z,99.90
2019-02-24T00:10:53.486Z,99.90
2019-02-24T00:13:22.795Z,99.90
2019-02-24T00:15:52.106Z,99.90
2019-02-24T00:18:21.563Z,99.90
2019-02-24T00:20:50.978Z,99.90
2019-02-24T00:23:20.283Z,99.90
2019-02-24T00:25:49.611Z,99.90
2019-02-24T00:28:18.911Z,99.90
2019-02-24T00:30:48.311Z,99.90
2019-02-24T00:33:17.590Z,99.90
2019-02-24T00:35:46.890Z,99.90
2019-02-24T00:38:16.167Z,99.90
2019-02-24T00:40:45.448Z,99.90
2019-02-24T00:43:14.802Z,99.90
2019-02-24T00:45:44.497Z,99.90
2019-02-24T00:48:13.778Z,99.90
2019-02-24T00:50:43.054Z,99.90
2019-02-24T00:53:12.389Z,99.90
2019-02-24T00:55:41.618Z,99.90
2019-02-24T00:58:16.249Z,99.90
2019-02-24T01:00:41.883Z,99.90
2019-02-24T01:03:11.169Z,99.90
2019-02-24T01:05:40.536Z,99.90
2019-02-24T01:08:09.900Z,99.90
2019-02-24T01:10:39.196Z,99.90
2019-02-24T01:13:08.539Z,99.90
2019-02-24T01:15:37.816Z,99.90
2019-02-24T01:18:07.130Z,99.90
2019-02-24T01:20:36.486Z,99.90
2019-02-24T01:23:06.048Z,99.90
2019-02-24T01:25:35.325Z,99.90
2019-02-24T01:28:04.696Z,99.90
2019-02-24T01:30:34.019Z,99.90
2019-02-24T01:33:03.373Z,99.90
2019-02-24T01:35:32.669Z,99.90
2019-02-24T01:38:02.004Z,99.90
2019-02-24T01:40:31.273Z,99.90
2019-02-24T01:43:00.612Z,99.90
2019-02-24T01:45:29.980Z,99.90
2019-02-24T01:47:59.291Z,99.90
2019-02-24T01:50:28.579Z,99.90
2019-02-24T01:52:57.883Z,99.90
2019-02-24T01:55:27.335Z,99.90
2019-02-24T01:57:56.625Z,99.90
2019-02-24T02:00:26.541Z,99.90
2019-02-24T02:02:55.937Z,99.90
2019-02-24T02:05:25.283Z,99.90
2019-02-24T02:07:54.662Z,99.90
2019-02-24T02:10:23.972Z,99.90
2019-02-24T02:12:53.339Z,99.90
2019-02-24T02:15:22.695Z,99.90
2019-02-24T02:17:51.986Z,99.90
2019-02-24T02:20:21.297Z,99.90
2019-02-24T02:22:50.590Z,99.90
2019-02-24T02:25:20.018Z,99.90
2019-02-24T02:27:49.374Z,99.90
2019-02-24T02:30:18.887Z,99.90
2019-02-24T02:32:48.158Z,99.90
2019-02-24T02:35:17.593Z,99.90
2019-02-24T02:37:48.886Z,99.90
2019-02-24T02:40:18.176Z,99.90
2019-02-24T02:43:11.412Z,99.90
2019-02-24T02:45:40.777Z,99.90
2019-02-24T02:48:10.089Z,99.90
2019-02-24T02:50:39.749Z,99.90
2019-02-24T02:53:09.357Z,99.90
2019-02-24T02:55:38.969Z,99.90
2019-02-24T02:58:08.222Z,99.90
2019-02-24T03:00:37.585Z,99.90
2019-02-24T03:03:06.847Z,99.90
2019-02-24T03:05:36.133Z,99.90
2019-02-24T03:08:13.334Z,99.90
2019-02-24T03:10:42.637Z,99.90
2019-02-24T03:13:13.118Z,99.90
2019-02-24T03:15:42.406Z,99.90
2019-02-24T03:18:11.766Z,99.90
2019-02-24T03:20:40.961Z,99.90
2019-02-24T03:23:10.188Z,99.90
2019-02-24T03:25:39.471Z,99.90
2019-02-24T03:28:08.781Z,99.90
2019-02-24T03:30:37.983Z,99.90
2019-02-24T03:33:07.283Z,99.90
2019-02-24T03:35:36.559Z,99.90
2019-02-24T03:38:05.940Z,99.90
2019-02-24T03:40:35.327Z,99.90
2019-02-24T03:43:04.628Z,99.90
2019-02-24T03:45:34.079Z,99.90
2019-02-24T03:48:03.437Z,99.90
2019-02-24T03:50:32.901Z,99.90
2019-02-24T03:53:02.185Z,99.90
2019-02-24T03:55:31.613Z,99.90
2019-02-24T03:58:00.967Z,99.90
2019-02-24T04:00:30.342Z,99.90
2019-02-24T04:02:59.848Z,99.90
2019-02-24T04:05:29.137Z,99.90
2019-02-24T04:07:58.496Z,99.90
2019-02-24T04:10:27.791Z,99.90
2019-02-24T04:12:57.078Z,99.90
2019-02-24T04:15:26.676Z,99.90
2019-02-24T04:17:55.940Z,99.90
2019-02-24T04:20:25.238Z,99.90
2019-02-24T04:22:54.519Z,99.90
2019-02-24T04:25:23.885Z,99.90
2019-02-24T04:27:53.143Z,99.90
2019-02-24T04:30:22.466Z,99.90
2019-02-24T04:32:51.806Z,99.90
2019-02-24T04:35:21.218Z,99.90
2019-02-24T04:37:50.518Z,99.90
2019-02-24T04:40:19.975Z,99.90
2019-02-24T04:42:49.350Z,99.90
2019-02-24T04:45:18.652Z,99.90
2019-02-24T04:47:48.007Z,99.90
2019-02-24T04:50:17.359Z,99.90
2019-02-24T04:52:46.711Z,99.90
2019-02-24T04:55:16.498Z,99.90
2019-02-24T04:57:45.799Z,99.90
2019-02-24T05:00:14.483Z,99.90
2019-02-24T05:02:43.857Z,99.90
2019-02-24T05:05:13.242Z,99.90
2019-02-24T05:07:42.595Z,99.90
2019-02-24T05:10:11.899Z,99.90
2019-02-24T05:12:41.174Z,99.90
2019-02-24T05:15:10.498Z,99.90
2019-02-24T05:17:39.807Z,99.90
2019-02-24T05:20:09.119Z,99.90
2019-02-24T05:22:38.402Z,99.90
2019-02-24T05:25:07.692Z,99.90
2019-02-24T05:27:37.022Z,99.90
2019-02-24T05:30:07.832Z,99.90
2019-02-24T05:32:37.182Z,99.90
2019-02-24T05:35:06.627Z,99.90
2019-02-24T05:37:35.922Z,99.90
2019-02-24T05:40:05.480Z,99.90
2019-02-24T05:42:34.865Z,99.90
2019-02-24T05:45:04.253Z,99.90
2019-02-24T05:47:33.562Z,99.90
2019-02-24T05:50:02.911Z,99.90
2019-02-24T05:52:32.219Z,99.90
2019-02-24T05:55:01.504Z,99.90
2019-02-24T05:57:30.906Z,99.90
2019-02-24T06:00:00.604Z,99.90
2019-02-24T06:02:30.050Z,99.90
2019-02-24T06:04:59.351Z,99.90
2019-02-24T06:07:28.679Z,99.90
2019-02-24T06:09:58.071Z,99.90
2019-02-24T06:12:27.412Z,99.90
2019-02-24T06:14:56.831Z,99.90
2019-02-24T06:17:26.202Z,99.90
2019-02-24T06:19:55.582Z,99.90
2019-02-24T06:22:24.846Z,99.90
2019-02-24T06:24:54.203Z,99.90
2019-02-24T06:27:23.408Z,99.90
2019-02-24T06:29:52.661Z,99.90
2019-02-24T06:32:21.954Z,99.90
2019-02-24T06:34:51.322Z,99.90
2019-02-24T06:37:20.725Z,99.90
2019-02-24T06:39:50.161Z,99.90
2019-02-24T06:42:19.419Z,99.90
2019-02-24T06:44:48.765Z,99.90
2019-02-24T06:47:17.994Z,99.90
2019-02-24T06:49:47.292Z,99.90
2019-02-24T06:52:18.238Z,99.90
2019-02-24T06:54:47.565Z,99.90
2019-02-24T06:57:17.041Z,99.90
2019-02-24T06:59:46.393Z,99.90
2019-02-24T07:02:15.781Z,99.90
2019-02-24T07:04:45.123Z,99.90
2019-02-24T07:07:14.420Z,99.90
2019-02-24T07:09:43.747Z,99.90
2019-02-24T07:12:13.119Z,99.90
2019-02-24T07:14:42.438Z,99.90
2019-02-24T07:17:11.765Z,99.90
2019-02-24T07:19:41.015Z,99.90
2019-02-24T07:22:10.384Z,99.90
2019-02-24T07:24:39.677Z,99.90
2019-02-24T07:27:08.992Z,99.90
2019-02-24T07:29:38.326Z,99.90
2019-02-24T07:32:07.698Z,99.90
2019-02-24T07:34:36.982Z,99.90
2019-02-24T07:37:12.945Z,99.90
2019-02-24T07:39:38.984Z,99.90
2019-02-24T07:42:08.366Z,99.90
2019-02-24T07:44:37.713Z,99.90
2019-02-24T07:47:07.067Z,99.90
2019-02-24T07:49:36.365Z,99.90
2019-02-24T07:52:05.566Z,99.90
2019-02-24T07:54:34.995Z,99.90
2019-02-24T07:57:04.334Z,99.90
2019-02-24T07:59:33.775Z,99.90
2019-02-24T08:02:03.134Z,99.90
2019-02-24T08:04:32.537Z,99.90
2019-02-24T08:07:01.833Z,99.90
2019-02-24T08:09:31.146Z,99.90
2019-02-24T08:12:00.454Z,99.90
2019-02-24T08:14:29.795Z,99.90
2019-02-24T08:16:59.170Z,99.90
2019-02-24T08:19:30.057Z,99.90
2019-02-24T08:22:03.221Z,99.90
2019-02-24T08:24:32.543Z,99.90
2019-02-24T08:27:01.860Z,99.90
2019-02-24T08:29:31.248Z,99.90
2019-02-24T08:32:00.618Z,99.90
2019-02-24T08:34:29.913Z,99.90
2019-02-24T08:36:59.230Z,99.90
2019-02-24T08:39:28.666Z,99.90
2019-02-24T08:41:58.078Z,99.90
2019-02-24T08:44:27.417Z,99.90
2019-02-24T08:46:56.811Z,99.90
2019-02-24T08:49:26.093Z,99.90
2019-02-24T08:51:55.454Z,99.90
2019-02-24T08:54:24.742Z,99.90
2019-02-24T08:56:55.687Z,99.90
2019-02-24T08:59:25.023Z,99.90
2019-02-24T09:01:54.386Z,99.60
2019-02-24T09:04:23.824Z,98.20
2019-02-24T09:06:53.149Z,96.30
2019-02-24T09:09:22.562Z,95.20
2019-02-24T09:11:52.023Z,94.00
2019-02-24T09:14:21.601Z,91.90
2019-02-24T09:16:51.012Z,91.10
2019-02-24T09:19:20.356Z,90.50
2019-02-24T09:21:49.653Z,90.00
2019-02-24T09:24:18.961Z,84.90
2019-02-24T09:26:48.334Z,80.40
2019-02-24T09:29:17.737Z,77.50
2019-02-24T09:31:47.145Z,75.10
2019-02-24T09:34:16.559Z,72.20
2019-02-24T09:36:45.927Z,70.70
2019-02-24T09:39:15.278Z,68.60
2019-02-24T09:41:44.603Z,64.90
2019-02-24T09:44:13.894Z,63.10
2019-02-24T09:46:43.169Z,61.30
2019-02-24T09:49:12.470Z,60.10
2019-02-24T09:51:41.808Z,58.90
2019-02-24T09:54:11.243Z,56.40
2019-02-24T09:56:41.118Z,55.80
2019-02-24T09:59:10.898Z,54.10
2019-02-24T10:01:40.219Z,53.20
2019-02-24T10:04:09.721Z,52.00
2019-02-24T10:06:39.002Z,52.20
2019-02-24T10:09:08.326Z,50.60
2019-02-24T10:11:37.629Z,50.20
2019-02-24T10:14:07.003Z,50.00
2019-02-24T10:16:36.375Z,49.00
2019-02-24T10:19:05.791Z,48.40
2019-02-24T10:21:35.076Z,48.10
2019-02-24T10:24:04.460Z,48.10
2019-02-24T10:26:33.704Z,47.30
2019-02-24T10:29:04.684Z,46.60
2019-02-24T10:31:34.125Z,46.10
2019-02-24T10:34:03.544Z,44.80
2019-02-24T10:36:32.913Z,44.40
2019-02-24T10:39:02.283Z,43.50
2019-02-24T10:41:31.757Z,42.60
2019-02-24T10:44:01.195Z,41.70
2019-02-24T10:46:30.573Z,41.10
2019-02-24T10:49:03.460Z,40.00
2019-02-24T10:51:30.857Z,39.60
2019-02-24T10:54:00.147Z,39.70
2019-02-24T10:56:29.479Z,39.10
2019-02-24T10:58:58.923Z,39.00
2019-02-24T11:01:29.820Z,38.40
2019-02-24T11:03:59.568Z,37.50
2019-02-24T11:06:28.853Z,37.70
2019-02-24T11:08:58.200Z,37.10
2019-02-24T11:11:27.581Z,36.80
2019-02-24T11:13:56.870Z,36.60
2019-02-24T11:16:26.300Z,36.20
2019-02-24T11:18:55.636Z,36.00
2019-02-24T11:21:25.007Z,35.80
2019-02-24T11:23:54.295Z,35.90
2019-02-24T11:26:23.689Z,35.80
2019-02-24T11:28:53.049Z,35.40
2019-02-24T11:31:22.401Z,35.30
2019-02-24T11:33:51.734Z,36.30
2019-02-24T11:36:21.049Z,36.70
2019-02-24T11:38:50.364Z,36.50
2019-02-24T11:41:19.674Z,35.80
2019-02-24T11:43:49.090Z,35.40
2019-02-24T11:46:18.406Z,36.00
2019-02-24T11:48:47.733Z,35.50
2019-02-24T11:51:17.060Z,35.20
2019-02-24T11:53:46.497Z,34.80
2019-02-24T11:56:15.850Z,35.00
2019-02-24T11:58:45.301Z,34.30
2019-02-24T12:01:14.674Z,34.00
2019-02-24T12:03:44.047Z,33.30
2019-02-24T12:06:13.486Z,33.50
2019-02-24T12:08:42.805Z,33.80
2019-02-24T12:11:12.198Z,34.10
2019-02-24T12:13:41.564Z,34.10
2019-02-24T12:16:10.888Z,34.30
2019-02-24T12:18:40.254Z,34.40
2019-02-24T12:21:10.763Z,34.50
2019-02-24T12:23:40.121Z,34.60
2019-02-24T12:26:09.455Z,34.70
2019-02-24T12:28:38.849Z,33.30
2019-02-24T12:31:08.153Z,32.90
2019-02-24T12:33:37.455Z,32.50
2019-02-24T12:36:06.776Z,32.40
2019-02-24T12:38:36.093Z,33.60
2019-02-24T12:41:05.287Z,34.40
2019-02-24T12:43:34.559Z,34.10
2019-02-24T12:46:03.937Z,33.60
2019-02-24T12:48:33.202Z,33.60
2019-02-24T12:51:02.613Z,33.30
2019-02-24T12:53:31.941Z,33.10
2019-02-24T12:56:01.238Z,33.40
2019-02-24T12:58:30.590Z,32.90
2019-02-24T13:00:59.913Z,33.10
2019-02-24T13:03:29.403Z,34.00
2019-02-24T13:05:58.794Z,32.50
2019-02-24T13:08:28.176Z,31.20
2019-02-24T13:10:57.447Z,30.40
2019-02-24T13:13:26.726Z,29.90
2019-02-24T13:15:56.040Z,29.80
2019-02-24T13:18:25.581Z,29.60
2019-02-24T13:20:54.878Z,29.30
2019-02-24T13:23:24.264Z,29.10
2019-02-24T13:25:53.558Z,28.90
2019-02-24T13:28:22.894Z,28.80
2019-02-24T13:30:52.406Z,28.90
2019-02-24T13:33:21.767Z,28.80
2019-02-24T13:35:51.090Z,28.70
2019-02-24T13:38:20.484Z,28.40
2019-02-24T13:40:49.822Z,28.30
2019-02-24T13:43:19.124Z,28.20
2019-02-24T13:45:48.491Z,28.40
2019-02-24T13:48:17.847Z,28.70
2019-02-24T13:50:47.227Z,28.90
2019-02-24T13:53:16.605Z,29.20
2019-02-24T13:55:45.933Z,29.20
2019-02-24T13:58:15.209Z,29.50
2019-02-24T14:00:44.581Z,29.70
2019-02-24T14:03:13.851Z,29.30
2019-02-24T14:05:43.156Z,29.60
2019-02-24T14:08:12.424Z,30.50
2019-02-24T14:10:41.739Z,30.00
2019-02-24T14:13:10.988Z,30.00
2019-02-24T14:15:40.331Z,30.20
2019-02-24T14:18:09.670Z,30.40
2019-02-24T14:20:39.068Z,31.00
2019-02-24T14:23:08.451Z,31.20
2019-02-24T14:25:37.742Z,32.80
2019-02-24T14:28:07.019Z,35.10
2019-02-24T14:30:36.367Z,38.30
2019-02-24T14:33:05.764Z,39.40
2019-02-24T14:35:35.128Z,40.70
2019-02-24T14:38:04.506Z,39.20
2019-02-24T14:40:33.859Z,39.30
2019-02-24T14:43:03.211Z,38.00
2019-02-24T14:45:32.463Z,37.80
2019-02-24T14:48:01.823Z,38.20
2019-02-24T14:50:31.114Z,38.60
2019-02-24T14:53:00.541Z,38.50
2019-02-24T14:55:29.878Z,39.80
2019-02-24T14:57:59.149Z,39.90
2019-02-24T15:00:28.493Z,39.00
2019-02-24T15:02:57.841Z,39.20
2019-02-24T15:05:27.121Z,39.30
2019-02-24T15:07:56.480Z,39.10
2019-02-24T15:10:25.826Z,39.40
2019-02-24T15:12:55.289Z,38.60
2019-02-24T15:15:32.416Z,38.50
2019-02-24T15:17:56.796Z,38.70
2019-02-24T15:20:26.197Z,38.90
2019-02-24T15:22:55.475Z,39.00
2019-02-24T15:25:24.793Z,38.90
2019-02-24T15:27:54.135Z,39.30
2019-02-24T15:30:26.453Z,39.10
2019-02-24T15:32:55.804Z,39.30
2019-02-24T15:35:25.098Z,38.80
2019-02-24T15:37:54.706Z,39.20
2019-02-24T15:40:24.191Z,39.40
2019-02-24T15:42:53.560Z,39.70
2019-02-24T15:45:22.858Z,40.10
2019-02-24T15:47:52.243Z,40.00
2019-02-24T15:50:21.544Z,40.60
2019-02-24T15:52:50.902Z,39.90
2019-02-24T15:55:20.284Z,40.10
2019-02-24T15:57:49.647Z,41.60
2019-02-24T16:00:18.994Z,41.30
2019-02-24T16:02:48.310Z,41.20
2019-02-24T16:05:17.593Z,41.30
2019-02-24T16:07:46.829Z,41.30
2019-02-24T16:10:17.738Z,42.20
2019-02-24T16:12:47.047Z,44.50
2019-02-24T16:15:16.366Z,43.30
2019-02-24T16:17:45.756Z,44.90
2019-02-24T16:20:20.426Z,45.90
2019-02-24T16:22:49.679Z,44.30
2019-02-24T16:25:19.051Z,46.00
2019-02-24T16:27:48.437Z,46.20
2019-02-24T16:30:17.689Z,46.40
2019-02-24T16:32:47.134Z,47.10
2019-02-24T16:35:16.425Z,47.50
2019-02-24T16:37:45.830Z,47.80
2019-02-24T16:40:18.773Z,47.30
2019-02-24T16:42:48.076Z,48.80
2019-02-24T16:45:17.559Z,48.80
2019-02-24T16:47:46.935Z,48.70
2019-02-24T16:50:17.491Z,50.00
2019-02-24T16:52:46.993Z,51.10
2019-02-24T16:55:16.358Z,51.90
2019-02-24T16:57:45.952Z,52.10
2019-02-24T17:00:17.877Z,51.70
2019-02-24T17:02:47.268Z,52.50
2019-02-24T17:05:16.669Z,52.10
2019-02-24T17:07:46.070Z,52.60
2019-02-24T17:10:17.289Z,51.50
2019-02-24T17:12:47.313Z,53.10
2019-02-24T17:15:16.629Z,53.20
2019-02-24T17:17:45.948Z,53.30
2019-02-24T17:20:16.310Z,52.40
2019-02-24T17:22:45.603Z,53.60
2019-02-24T17:25:14.998Z,54.60
2019-02-24T17:27:44.378Z,54.80
2019-02-24T17:30:14.126Z,53.50
2019-02-24T17:32:43.427Z,54.20
2019-02-24T17:35:13.084Z,53.20
2019-02-24T17:37:42.408Z,53.90
2019-02-24T17:40:13.785Z,54.50
2019-02-24T17:42:43.329Z,56.60
2019-02-24T17:45:12.990Z,56.80
2019-02-24T17:47:42.729Z,56.80
2019-02-24T17:50:13.860Z,58.30
2019-02-24T17:52:43.160Z,58.20
2019-02-24T17:55:13.100Z,58.70
2019-02-24T17:57:42.442Z,59.50
2019-02-24T18:00:16.015Z,59.90
2019-02-24T18:02:45.321Z,60.20
2019-02-24T18:05:14.641Z,60.60
2019-02-24T18:07:43.880Z,59.30
2019-02-24T18:10:13.442Z,59.40
2019-02-24T18:12:42.780Z,59.80
2019-02-24T18:15:12.394Z,59.80
2019-02-24T18:17:41.677Z,60.80
2019-02-24T18:20:11.667Z,60.70
2019-02-24T18:22:48.220Z,61.50
2019-02-24T18:25:17.537Z,62.30
2019-02-24T18:27:46.978Z,63.70
2019-02-24T18:30:18.620Z,62.90
2019-02-24T18:32:48.018Z,60.90
2019-02-24T18:35:17.399Z,62.90
2019-02-24T18:37:46.764Z,62.90
2019-02-24T18:40:18.138Z,63.90
2019-02-24T18:42:47.419Z,66.20
2019-02-24T18:45:16.703Z,64.80
2019-02-24T18:47:46.039Z,67.90
2019-02-24T18:50:15.359Z,66.40
2019-02-24T18:52:44.659Z,77.00
2019-02-24T18:55:13.990Z,79.70
2019-02-24T18:57:43.344Z,80.30
2019-02-24T19:00:14.570Z,82.80
2019-02-24T19:02:43.854Z,82.80
2019-02-24T19:05:13.251Z,82.70
2019-02-24T19:07:42.624Z,85.10
2019-02-24T19:10:13.545Z,89.00
2019-02-24T19:12:42.866Z,87.60
2019-02-24T19:15:14.692Z,89.10
2019-02-24T19:17:43.960Z,90.60
2019-02-24T19:20:14.889Z,92.40
2019-02-24T19:22:44.274Z,92.40
2019-02-24T19:25:13.911Z,90.90
2019-02-24T19:27:43.249Z,90.60
2019-02-24T19:30:14.997Z,91.40
2019-02-24T19:32:44.420Z,92.40
2019-02-24T19:35:14.274Z,92.70
2019-02-24T19:37:44.124Z,92.70
2019-02-24T19:40:15.053Z,92.70
2019-02-24T19:42:44.322Z,96.50
2019-02-24T19:45:14.771Z,95.90
2019-02-24T19:47:44.111Z,95.40
2019-02-24T19:50:15.201Z,94.70
2019-02-24T19:52:44.579Z,95.00
2019-02-24T19:55:14.126Z,96.60
2019-02-24T19:57:43.398Z,97.40
2019-02-24T20:00:15.911Z,99.90
2019-02-24T20:02:45.196Z,98.20
2019-02-24T20:05:14.593Z,98.10
2019-02-24T20:07:43.943Z,98.40
2019-02-24T20:10:15.506Z,99.30
2019-02-24T20:12:44.996Z,98.40
2019-02-24T20:15:14.680Z,99.30
2019-02-24T20:17:44.020Z,99.60
2019-02-24T20:20:13.793Z,99.50
2019-02-24T20:22:43.047Z,99.90
2019-02-24T20:25:12.809Z,99.90
2019-02-24T20:27:42.099Z,99.90
2019-02-24T20:30:17.350Z,99.90
2019-02-24T20:32:46.652Z,99.90
2019-02-24T20:35:16.038Z,99.90
2019-02-24T20:37:45.387Z,99.90
2019-02-24T20:40:14.673Z,99.90
2019-02-24T20:42:43.873Z,99.90
2019-02-24T20:45:14.100Z,99.90
2019-02-24T20:47:43.418Z,99.90
2019-02-24T20:50:14.222Z,99.90
2019-02-24T20:52:43.602Z,99.90
2019-02-24T20:55:13.101Z,99.90
2019-02-24T20:57:42.390Z,99.90
2019-02-24T21:00:32.109Z,99.90
2019-02-24T21:03:01.622Z,99.90
2019-02-24T21:05:31.105Z,99.90
2019-02-24T21:08:00.381Z,99.90
2019-02-24T21:10:29.777Z,99.90
2019-02-24T21:12:59.154Z,99.90
2019-02-24T21:15:28.506Z,99.90
2019-02-24T21:17:57.992Z,99.90
2019-02-24T21:20:28.145Z,99.90
2019-02-24T21:22:57.558Z,99.90
2019-02-24T21:25:28.049Z,99.90
2019-02-24T21:27:57.490Z,99.90
2019-02-24T21:30:26.851Z,99.90
2019-02-24T21:32:56.277Z,99.90
2019-02-24T21:35:25.707Z,99.90
2019-02-24T21:37:55.058Z,99.90
2019-02-24T21:40:24.564Z,99.90
2019-02-24T21:42:53.894Z,99.90
2019-02-24T21:45:23.665Z,99.90
2019-02-24T21:47:53.188Z,99.90
2019-02-24T21:50:22.549Z,99.90
2019-02-24T21:52:51.981Z,99.90
2019-02-24T21:55:21.252Z,99.90
2019-02-24T21:57:50.688Z,99.90
2019-02-24T22:00:21.702Z,99.90
2019-02-24T22:02:50.997Z,99.90
2019-02-24T22:05:21.652Z,99.90
2019-02-24T22:07:50.987Z,99.90
2019-02-24T22:10:20.295Z,99.90
2019-02-24T22:12:49.688Z,99.90
2019-02-24T22:15:19.123Z,99.90
2019-02-24T22:17:49.914Z,99.90
2019-02-24T22:20:19.329Z,99.90
2019-02-24T22:22:48.761Z,99.90
2019-02-24T22:25:18.200Z,99.90
2019-02-24T22:27:47.564Z,99.90
2019-02-24T22:30:18.267Z,99.90
2019-02-24T22:32:47.682Z,99.90
2019-02-24T22:35:16.923Z,99.90
2019-02-24T22:37:46.224Z,99.90
2019-02-24T22:40:16.776Z,99.90
2019-02-24T22:42:46.533Z,99.90
2019-02-24T22:45:16.927Z,99.90
2019-02-24T22:47:46.659Z,99.90
2019-02-24T22:50:16.333Z,99.90
2019-02-24T22:52:45.833Z,99.90
2019-02-24T22:55:15.667Z,99.90
2019-02-24T22:57:45.034Z,99.90
2019-02-24T23:00:27.399Z,99.90
2019-02-24T23:02:56.789Z,99.90
2019-02-24T23:05:26.149Z,99.90
2019-02-24T23:07:55.572Z,99.90
2019-02-24T23:10:24.893Z,99.90
2019-02-24T23:12:54.550Z,99.90
2019-02-24T23:15:24.454Z,99.90
2019-02-24T23:17:54.160Z,99.90
2019-02-24T23:20:23.959Z,99.90
2019-02-24T23:22:53.433Z,99.90
2019-02-24T23:25:22.951Z,99.90
2019-02-24T23:27:52.487Z,99.90
2019-02-24T23:30:22.289Z,99.90
2019-02-24T23:32:52.106Z,99.90
2019-02-24T23:35:22.245Z,99.90
2019-02-24T23:37:51.964Z,99.90
2019-02-24T23:40:21.712Z,99.90
2019-02-24T23:42:51.241Z,99.90
2019-02-24T23:45:21.034Z,99.90
2019-02-24T23:47:53.950Z,99.90
2019-02-24T23:50:23.457Z,99.90
2019-02-24T23:52:53.201Z,99.90
2019-02-24T23:55:24.269Z,99.90
2019-02-24T23:57:53.874Z,99.90
